Everglades National Park, Florida
Current Conditions -  °F | °C
As of 8:58 PM on Saturday 25 Oct 2014 (Local Time) from KHST Reporting Station
Clear Clear  
Wind Chill: 72°   Ceiling: Unl
Heat Index: 72°   Visibility: 10mi
Dew Point: 62°   Wind: 3mph
Humidity: 70%   Direction: 20°NNE
Pressure: 29.94"   Gusts: NA
Location:  25.4848°N, 80.5094°W
Report Text: KHST 260058Z AUTO 02003KT 10SM CLR 22/17 A2994 RMK AO2 SLP142 T02230167
Loading
Personal Weather Stations






























Interactive Weather Map
Tropical Storm Tracking
New forecast layout! Learn more

10-Day Weather Forecast

Advertisements
Track Severe Weather on mobile